sensor_id;sensor_type;location;lat;lon;timestamp;pressure;altitude;pressure_sealevel;temperature;humidity
65546;BME280;52177;55.968;37.498;2023-04-28T00:00:08;99162.56;;;10.11;69.38
65546;BME280;52177;55.968;37.498;2023-04-28T00:00:39;99171.56;;;10.10;69.33
65546;BME280;52177;55.968;37.498;2023-04-28T00:01:09;99165.22;;;10.11;69.39
65546;BME280;52177;55.968;37.498;2023-04-28T00:01:39;99166.06;;;10.11;69.40
65546;BME280;52177;55.968;37.498;2023-04-28T00:02:10;99172.88;;;10.14;69.54
65546;BME280;52177;55.968;37.498;2023-04-28T00:02:40;99168.34;;;10.14;69.44
65546;BME280;52177;55.968;37.498;2023-04-28T00:03:10;99168.34;;;10.14;69.41
65546;BME280;52177;55.968;37.498;2023-04-28T00:03:41;99166.50;;;10.15;69.36
65546;BME280;52177;55.968;37.498;2023-04-28T00:04:12;99170.63;;;10.18;69.38
65546;BME280;52177;55.968;37.498;2023-04-28T00:04:42;99166.97;;;10.19;69.25
65546;BME280;52177;55.968;37.498;2023-04-28T00:05:13;99169.63;;;10.19;69.02
65546;BME280;52177;55.968;37.498;2023-04-28T00:05:43;99170.47;;;10.19;69.10
65546;BME280;52177;55.968;37.498;2023-04-28T00:06:13;99165.13;;;10.19;69.16
65546;BME280;52177;55.968;37.498;2023-04-28T00:06:44;99164.31;;;10.19;68.95
65546;BME280;52177;55.968;37.498;2023-04-28T00:07:14;99159.97;;;10.18;68.95
65546;BME280;52177;55.968;37.498;2023-04-28T00:07:45;99167.16;;;10.17;68.80
65546;BME280;52177;55.968;37.498;2023-04-28T00:08:15;99163.03;;;10.14;69.08
65546;BME280;52177;55.968;37.498;2023-04-28T00:08:46;99163.22;;;10.13;69.16
65546;BME280;52177;55.968;37.498;2023-04-28T00:09:16;99162.56;;;10.11;69.25
65546;BME280;52177;55.968;37.498;2023-04-28T00:09:46;99162.13;;;10.07;69.20
65546;BME280;52177;55.968;37.498;2023-04-28T00:10:17;99154.31;;;10.06;69.19
65546;BME280;52177;55.968;37.498;2023-04-28T00:10:47;99156.34;;;10.04;69.25
65546;BME280;52177;55.968;37.498;2023-04-28T00:11:17;99158.34;;;10.02;69.19
65546;BME280;52177;55.968;37.498;2023-04-28T00:11:48;99163.25;;;9.98;69.36
65546;BME280;52177;55.968;37.498;2023-04-28T00:12:18;99158.28;;;9.95;69.60
65546;BME280;52177;55.968;37.498;2023-04-28T00:12:48;99158.28;;;9.95;69.63
65546;BME280;52177;55.968;37.498;2023-04-28T00:13:19;99158.66;;;9.92;69.50
65546;BME280;52177;55.968;37.498;2023-04-28T00:13:49;99160.31;;;9.93;69.45
65546;BME280;52177;55.968;37.498;2023-04-28T00:14:20;99158.66;;;9.92;69.46
65546;BME280;52177;55.968;37.498;2023-04-28T00:14:50;99156.19;;;9.90;69.73
65546;BME280;52177;55.968;37.498;2023-04-28T00:15:21;99157.19;;;9.89;69.64
65546;BME280;52177;55.968;37.498;2023-04-28T00:15:52;99158.38;;;9.87;69.64
65546;BME280;52177;55.968;37.498;2023-04-28T00:16:23;99156.75;;;9.86;69.82
65546;BME280;52177;55.968;37.498;2023-04-28T00:16:53;99155.06;;;9.85;70.01
65546;BME280;52177;55.968;37.498;2023-04-28T00:17:25;99159.75;;;9.83;70.15
65546;BME280;52177;55.968;37.498;2023-04-28T00:17:56;99150.13;;;9.82;70.08
65546;BME280;52177;55.968;37.498;2023-04-28T00:18:26;99156.44;;;9.81;69.96
65546;BME280;52177;55.968;37.498;2023-04-28T00:18:58;99154.81;;;9.80;69.95
65546;BME280;52177;55.968;37.498;2023-04-28T00:19:28;99151.34;;;9.79;70.06
65546;BME280;52177;55.968;37.498;2023-04-28T00:19:59;99154.16;;;9.78;70.02
65546;BME280;52177;55.968;37.498;2023-04-28T00:20:29;99154.16;;;9.78;70.17
65546;BME280;52177;55.968;37.498;2023-04-28T00:20:59;99153.53;;;9.76;70.21
65546;BME280;52177;55.968;37.498;2023-04-28T00:21:31;99148.41;;;9.74;70.21
65546;BME280;52177;55.968;37.498;2023-04-28T00:22:01;99148.56;;;9.72;70.33
65546;BME280;52177;55.968;37.498;2023-04-28T00:22:31;99149.41;;;9.73;70.32
65546;BME280;52177;55.968;37.498;2023-04-28T00:23:02;99149.78;;;9.70;70.29
65546;BME280;52177;55.968;37.498;2023-04-28T00:23:32;99147.13;;;9.70;70.27
65546;BME280;52177;55.968;37.498;2023-04-28T00:24:02;99152.59;;;9.68;70.31
65546;BME280;52177;55.968;37.498;2023-04-28T00:24:33;99157.75;;;9.70;70.29
65546;BME280;52177;55.968;37.498;2023-04-28T00:25:07;99159.22;;;9.72;70.41
65546;BME280;52177;55.968;37.498;2023-04-28T00:25:37;99155.53;;;9.73;70.47
65546;BME280;52177;55.968;37.498;2023-04-28T00:26:08;99154.53;;;9.75;70.31
65546;BME280;52177;55.968;37.498;2023-04-28T00:26:38;99155.38;;;9.75;70.04
65546;BME280;52177;55.968;37.498;2023-04-28T00:27:09;99156.56;;;9.72;69.91
65546;BME280;52177;55.968;37.498;2023-04-28T00:27:39;99159.41;;;9.71;70.00
65546;BME280;52177;55.968;37.498;2023-04-28T00:28:09;99157.94;;;9.68;70.19
65546;BME280;52177;55.968;37.498;2023-04-28T00:28:40;99154.44;;;9.68;70.38
65546;BME280;52177;55.968;37.498;2023-04-28T00:29:10;99161.41;;;9.69;70.53
65546;BME280;52177;55.968;37.498;2023-04-28T00:29:40;99156.94;;;9.69;70.67
65546;BME280;52177;55.968;37.498;2023-04-28T00:30:11;99160.41;;;9.70;70.75
65546;BME280;52177;55.968;37.498;2023-04-28T00:30:41;99155.09;;;9.70;70.75
65546;BME280;52177;55.968;37.498;2023-04-28T00:31:12;99154.06;;;9.71;70.82
65546;BME280;52177;55.968;37.498;2023-04-28T00:31:43;99160.22;;;9.71;70.82
65546;BME280;52177;55.968;37.498;2023-04-28T00:32:14;99157.56;;;9.71;70.88
65546;BME280;52177;55.968;37.498;2023-04-28T00:32:44;99158.41;;;9.72;70.77
65546;BME280;52177;55.968;37.498;2023-04-28T00:33:15;99155.53;;;9.73;70.85
65546;BME280;52177;55.968;37.498;2023-04-28T00:33:45;99161.50;;;9.76;70.69
65546;BME280;52177;55.968;37.498;2023-04-28T00:34:15;99159.66;;;9.76;70.59
65546;BME280;52177;55.968;37.498;2023-04-28T00:34:46;99167.47;;;9.78;70.61
65546;BME280;52177;55.968;37.498;2023-04-28T00:35:16;99162.97;;;9.78;70.70
65546;BME280;52177;55.968;37.498;2023-04-28T00:35:46;99163.44;;;9.82;70.44
65546;BME280;52177;55.968;37.498;2023-04-28T00:36:17;99163.44;;;9.82;70.41
65546;BME280;52177;55.968;37.498;2023-04-28T00:36:47;99160.59;;;9.83;70.33
65546;BME280;52177;55.968;37.498;2023-04-28T00:37:18;99171.06;;;9.85;70.34
65546;BME280;52177;55.968;37.498;2023-04-28T00:37:48;99167.56;;;9.84;70.22
65546;BME280;52177;55.968;37.498;2023-04-28T00:38:19;99156.09;;;9.84;70.30
65546;BME280;52177;55.968;37.498;2023-04-28T00:38:49;99162.25;;;9.84;70.20
65546;BME280;52177;55.968;37.498;2023-04-28T00:39:20;99158.75;;;9.84;70.13
65546;BME280;52177;55.968;37.498;2023-04-28T00:39:55;99155.28;;;9.83;70.44
65546;BME280;52177;55.968;37.498;2023-04-28T00:40:35;99155.44;;;9.82;70.60
65546;BME280;52177;55.968;37.498;2023-04-28T00:41:08;99154.00;;;9.79;70.65
65546;BME280;52177;55.968;37.498;2023-04-28T00:41:39;99158.50;;;9.79;70.69
65546;BME280;52177;55.968;37.498;2023-04-28T00:42:09;99151.50;;;9.78;70.61
65546;BME280;52177;55.968;37.498;2023-04-28T00:42:39;99155.19;;;9.77;70.42
65546;BME280;52177;55.968;37.498;2023-04-28T00:43:10;99149.00;;;9.76;70.32
65546;BME280;52177;55.968;37.498;2023-04-28T00:43:48;99151.69;;;9.76;70.40
65546;BME280;52177;55.968;37.498;2023-04-28T00:44:19;99164.16;;;9.76;70.38
65546;BME280;52177;55.968;37.498;2023-04-28T00:44:50;99158.03;;;9.75;70.44
65546;BME280;52177;55.968;37.498;2023-04-28T00:45:20;99152.88;;;9.73;70.32
65546;BME280;52177;55.968;37.498;2023-04-28T00:45:51;99152.88;;;9.73;70.55
65546;BME280;52177;55.968;37.498;2023-04-28T00:46:25;99156.38;;;9.74;70.47
65546;BME280;52177;55.968;37.498;2023-04-28T00:46:58;99152.22;;;9.71;70.47
65546;BME280;52177;55.968;37.498;2023-04-28T00:47:28;99153.91;;;9.72;70.38
65546;BME280;52177;55.968;37.498;2023-04-28T00:47:59;99157.56;;;9.71;70.51
65546;BME280;52177;55.968;37.498;2023-04-28T00:48:30;99158.41;;;9.72;70.57
65546;BME280;52177;55.968;37.498;2023-04-28T00:49:00;99157.56;;;9.71;70.36
65546;BME280;52177;55.968;37.498;2023-04-28T00:49:31;99151.41;;;9.71;70.35
65546;BME280;52177;55.968;37.498;2023-04-28T00:50:04;99153.09;;;9.72;70.51
65546;BME280;52177;55.968;37.498;2023-04-28T00:50:38;99160.03;;;9.73;70.49
65546;BME280;52177;55.968;37.498;2023-04-28T00:51:08;99153.91;;;9.72;70.42
65546;BME280;52177;55.968;37.498;2023-04-28T00:51:39;99146.91;;;9.71;70.43
65546;BME280;52177;55.968;37.498;2023-04-28T00:52:09;99148.56;;;9.72;70.35
65546;BME280;52177;55.968;37.498;2023-04-28T00:52:40;99144.25;;;9.71;70.72
65546;BME280;52177;55.968;37.498;2023-04-28T00:53:12;99145.28;;;9.70;70.68
65546;BME280;52177;55.968;37.498;2023-04-28T00:53:43;99147.94;;;9.70;70.67
65546;BME280;52177;55.968;37.498;2023-04-28T00:54:13;99148.75;;;9.71;70.70
65546;BME280;52177;55.968;37.498;2023-04-28T00:54:44;99148.97;;;9.69;70.76
65546;BME280;52177;55.968;37.498;2023-04-28T00:55:17;99144.44;;;9.70;70.67
65546;BME280;52177;55.968;37.498;2023-04-28T00:55:48;99133.97;;;9.68;70.71
65546;BME280;52177;55.968;37.498;2023-04-28T00:56:20;99135.81;;;9.68;70.78
65546;BME280;52177;55.968;37.498;2023-04-28T00:56:50;99133.97;;;9.68;70.71
65546;BME280;52177;55.968;37.498;2023-04-28T00:57:21;99138.31;;;9.69;70.83
65546;BME280;52177;55.968;37.498;2023-04-28T00:57:54;99142.78;;;9.69;71.00
65546;BME280;52177;55.968;37.498;2023-04-28T00:58:25;99142.78;;;9.69;70.99
65546;BME280;52177;55.968;37.498;2023-04-28T00:58:56;99135.66;;;9.69;70.93
65546;BME280;52177;55.968;37.498;2023-04-28T00:59:28;99146.28;;;9.69;71.03
65546;BME280;52177;55.968;37.498;2023-04-28T00:59:58;99143.44;;;9.71;71.13
65546;BME280;52177;55.968;37.498;2023-04-28T01:00:29;99144.25;;;9.71;71.20
65546;BME280;52177;55.968;37.498;2023-04-28T01:01:07;99141.22;;;9.75;71.23
65546;BME280;52177;55.968;37.498;2023-04-28T01:01:38;99141.03;;;9.76;71.31
65546;BME280;52177;55.968;37.498;2023-04-28T01:02:08;99149.88;;;9.77;71.51
65546;BME280;52177;55.968;37.498;2023-04-28T01:02:38;99143.34;;;9.79;71.68
65546;BME280;52177;55.968;37.498;2023-04-28T01:03:09;99147.47;;;9.82;71.68
65546;BME280;52177;55.968;37.498;2023-04-28T01:03:40;99145.44;;;9.84;71.55
65546;BME280;52177;55.968;37.498;2023-04-28T01:04:10;99140.94;;;9.84;71.52
65546;BME280;52177;55.968;37.498;2023-04-28T01:04:40;99140.78;;;9.86;71.38
65546;BME280;52177;55.968;37.498;2023-04-28T01:05:11;99138.09;;;9.86;71.42
65546;BME280;52177;55.968;37.498;2023-04-28T01:05:43;99145.06;;;9.87;71.38
65546;BME280;52177;55.968;37.498;2023-04-28T01:06:15;99144.91;;;9.88;71.49
65546;BME280;52177;55.968;37.498;2023-04-28T01:06:46;99150.00;;;9.90;71.66
65546;BME280;52177;55.968;37.498;2023-04-28T01:07:17;99141.03;;;9.91;71.58
65546;BME280;52177;55.968;37.498;2023-04-28T01:07:47;99141.03;;;9.91;71.53
65546;BME280;52177;55.968;37.498;2023-04-28T01:08:22;99149.66;;;9.93;71.67
65546;BME280;52177;55.968;37.498;2023-04-28T01:08:53;99145.97;;;9.94;71.85
65546;BME280;52177;55.968;37.498;2023-04-28T01:09:24;99149.28;;;9.96;71.83
65546;BME280;52177;55.968;37.498;2023-04-28T01:09:54;99139.28;;;9.98;71.69
65546;BME280;52177;55.968;37.498;2023-04-28T01:10:25;99142.75;;;9.99;71.69
65546;BME280;52177;55.968;37.498;2023-04-28T01:10:55;99140.91;;;9.99;71.73
65546;BME280;52177;55.968;37.498;2023-04-28T01:11:25;99143.41;;;10.01;71.64
65546;BME280;52177;55.968;37.498;2023-04-28T01:11:56;99138.06;;;10.01;71.64
65546;BME280;52177;55.968;37.498;2023-04-28T01:12:27;99138.91;;;10.01;71.51
65546;BME280;52177;55.968;37.498;2023-04-28T01:12:57;99137.91;;;10.02;71.49
65546;BME280;52177;55.968;37.498;2023-04-28T01:13:28;99136.88;;;10.03;71.34
65546;BME280;52177;55.968;37.498;2023-04-28T01:13:58;99146.88;;;10.01;71.29
65546;BME280;52177;55.968;37.498;2023-04-28T01:14:29;99145.88;;;10.02;71.38
65546;BME280;52177;55.968;37.498;2023-04-28T01:14:59;99132.56;;;10.02;71.46
65546;BME280;52177;55.968;37.498;2023-04-28T01:15:30;99135.03;;;10.04;71.50
65546;BME280;52177;55.968;37.498;2023-04-28T01:16:01;99135.66;;;10.06;71.53
65546;BME280;52177;55.968;37.498;2023-04-28T01:16:33;99133.00;;;10.06;71.63
65546;BME280;52177;55.968;37.498;2023-04-28T01:17:04;99131.81;;;10.08;71.62
65546;BME280;52177;55.968;37.498;2023-04-28T01:17:35;99133.47;;;10.09;71.65
65546;BME280;52177;55.968;37.498;2023-04-28T01:18:05;99129.78;;;10.10;71.56
65546;BME280;52177;55.968;37.498;2023-04-28T01:18:36;99136.78;;;10.11;71.45
65546;BME280;52177;55.968;37.498;2023-04-28T01:19:07;99133.09;;;10.12;71.47
65546;BME280;52177;55.968;37.498;2023-04-28T01:19:37;99131.44;;;10.11;71.42
65546;BME280;52177;55.968;37.498;2023-04-28T01:20:08;99136.78;;;10.11;71.46
65546;BME280;52177;55.968;37.498;2023-04-28T01:20:38;99130.81;;;10.09;71.40
65546;BME280;52177;55.968;37.498;2023-04-28T01:21:09;99137.78;;;10.10;71.46
65546;BME280;52177;55.968;37.498;2023-04-28T01:21:39;99133.47;;;10.09;71.45
65546;BME280;52177;55.968;37.498;2023-04-28T01:22:10;99138.81;;;10.09;71.50
65546;BME280;52177;55.968;37.498;2023-04-28T01:22:43;99141.63;;;10.08;71.52
65546;BME280;52177;55.968;37.498;2023-04-28T01:23:14;99148.00;;;10.07;71.49
65546;BME280;52177;55.968;37.498;2023-04-28T01:23:45;99146.31;;;10.06;71.54
65546;BME280;52177;55.968;37.498;2023-04-28T01:24:16;99149.00;;;10.06;71.53
65546;BME280;52177;55.968;37.498;2023-04-28T01:24:46;99135.66;;;10.06;71.45
65546;BME280;52177;55.968;37.498;2023-04-28T01:25:16;99138.50;;;10.04;71.45
65546;BME280;52177;55.968;37.498;2023-04-28T01:25:47;99145.50;;;10.05;71.31
65546;BME280;52177;55.968;37.498;2023-04-28T01:26:17;99144.03;;;10.03;71.28
65546;BME280;52177;55.968;37.498;2023-04-28T01:26:47;99142.38;;;10.02;71.23
65546;BME280;52177;55.968;37.498;2023-04-28T01:27:18;99138.91;;;10.01;71.33
65546;BME280;52177;55.968;37.498;2023-04-28T01:27:48;99143.56;;;9.99;71.42
65546;BME280;52177;55.968;37.498;2023-04-28T01:28:18;99134.94;;;9.97;71.40
65546;BME280;52177;55.968;37.498;2023-04-28T01:28:49;99137.81;;;9.96;71.51
65546;BME280;52177;55.968;37.498;2023-04-28T01:29:19;99138.63;;;9.96;71.55
65546;BME280;52177;55.968;37.498;2023-04-28T01:29:50;99142.31;;;9.95;71.58
65546;BME280;52177;55.968;37.498;2023-04-28T01:30:21;99136.34;;;9.93;71.60
65546;BME280;52177;55.968;37.498;2023-04-28T01:30:51;99143.50;;;9.92;71.67
65546;BME280;52177;55.968;37.498;2023-04-28T01:31:21;99142.66;;;9.92;71.81
65546;BME280;52177;55.968;37.498;2023-04-28T01:31:52;99143.50;;;9.92;71.78
65546;BME280;52177;55.968;37.498;2023-04-28T01:32:22;99135.72;;;9.91;71.71
65546;BME280;52177;55.968;37.498;2023-04-28T01:32:52;99134.03;;;9.90;71.84
65546;BME280;52177;55.968;37.498;2023-04-28T01:33:23;99139.38;;;9.90;71.78
65546;BME280;52177;55.968;37.498;2023-04-28T01:33:53;99138.53;;;9.89;71.78
65546;BME280;52177;55.968;37.498;2023-04-28T01:34:24;99140.56;;;9.87;71.71
65546;BME280;52177;55.968;37.498;2023-04-28T01:34:54;99132.56;;;9.87;71.77
65546;BME280;52177;55.968;37.498;2023-04-28T01:35:25;99136.44;;;9.85;71.80
65546;BME280;52177;55.968;37.498;2023-04-28T01:35:58;99135.63;;;9.84;71.87
65546;BME280;52177;55.968;37.498;2023-04-28T01:36:29;99132.31;;;9.82;71.85
65546;BME280;52177;55.968;37.498;2023-04-28T01:36:59;99129.66;;;9.82;71.84
65546;BME280;52177;55.968;37.498;2023-04-28T01:37:29;99134.97;;;9.82;71.72
65546;BME280;52177;55.968;37.498;2023-04-28T01:38:00;99136.81;;;9.82;71.75
65546;BME280;52177;55.968;37.498;2023-04-28T01:38:31;99133.13;;;9.83;71.96
65546;BME280;52177;55.968;37.498;2023-04-28T01:39:01;99135.16;;;9.81;72.08
65546;BME280;52177;55.968;37.498;2023-04-28T01:39:32;99128.19;;;9.80;71.97
65546;BME280;52177;55.968;37.498;2023-04-28T01:40:02;99127.38;;;9.79;72.17
65546;BME280;52177;55.968;37.498;2023-04-28T01:40:33;99126.56;;;9.79;72.09
65546;BME280;52177;55.968;37.498;2023-04-28T01:41:03;99135.53;;;9.78;72.10
65546;BME280;52177;55.968;37.498;2023-04-28T01:41:34;99133.91;;;9.77;72.15
65546;BME280;52177;55.968;37.498;2023-04-28T01:42:04;99129.56;;;9.76;72.08
65546;BME280;52177;55.968;37.498;2023-04-28T01:42:35;99136.72;;;9.75;72.03
65546;BME280;52177;55.968;37.498;2023-04-28T01:43:05;99129.78;;;9.74;72.02
65546;BME280;52177;55.968;37.498;2023-04-28T01:43:36;99133.59;;;9.71;72.05
65546;BME280;52177;55.968;37.498;2023-04-28T01:44:06;99133.59;;;9.71;72.13
65546;BME280;52177;55.968;37.498;2023-04-28T01:44:36;99135.44;;;9.71;72.25
65546;BME280;52177;55.968;37.498;2023-04-28T01:45:07;99137.94;;;9.72;72.16
65546;BME280;52177;55.968;37.498;2023-04-28T01:45:38;99137.09;;;9.72;72.27
65546;BME280;52177;55.968;37.498;2023-04-28T01:46:09;99141.41;;;9.73;72.22
65546;BME280;52177;55.968;37.498;2023-04-28T01:46:39;99145.53;;;9.76;72.18
65546;BME280;52177;55.968;37.498;2023-04-28T01:47:09;99145.53;;;9.76;72.12
65546;BME280;52177;55.968;37.498;2023-04-28T01:47:40;99147.22;;;9.77;72.06
65546;BME280;52177;55.968;37.498;2023-04-28T01:48:10;99146.19;;;9.78;71.93
65546;BME280;52177;55.968;37.498;2023-04-28T01:48:40;99146.00;;;9.79;71.88
65546;BME280;52177;55.968;37.498;2023-04-28T01:49:11;99146.00;;;9.79;72.01
65546;BME280;52177;55.968;37.498;2023-04-28T01:49:41;99138.84;;;9.80;71.74
65546;BME280;52177;55.968;37.498;2023-04-28T01:50:11;99144.53;;;9.77;71.85
65546;BME280;52177;55.968;37.498;2023-04-28T01:50:42;99143.69;;;9.76;71.95
65546;BME280;52177;55.968;37.498;2023-04-28T01:51:12;99146.34;;;9.76;71.93
65546;BME280;52177;55.968;37.498;2023-04-28T01:51:42;99141.88;;;9.77;71.99
65546;BME280;52177;55.968;37.498;2023-04-28T01:52:13;99148.03;;;9.77;71.88
65546;BME280;52177;55.968;37.498;2023-04-28T01:52:43;99149.88;;;9.77;71.99
65546;BME280;52177;55.968;37.498;2023-04-28T01:53:13;99144.53;;;9.77;71.75
65546;BME280;52177;55.968;37.498;2023-04-28T01:53:44;99142.22;;;9.73;71.75
65546;BME280;52177;55.968;37.498;2023-04-28T01:54:14;99147.75;;;9.72;71.67
65546;BME280;52177;55.968;37.498;2023-04-28T01:54:45;99142.59;;;9.70;71.93
65546;BME280;52177;55.968;37.498;2023-04-28T01:55:15;99145.44;;;9.69;72.02
65546;BME280;52177;55.968;37.498;2023-04-28T01:55:45;99137.84;;;9.66;72.17
65546;BME280;52177;55.968;37.498;2023-04-28T01:56:16;99141.53;;;9.65;72.31
65546;BME280;52177;55.968;37.498;2023-04-28T01:56:46;99144.34;;;9.63;72.30
65546;BME280;52177;55.968;37.498;2023-04-28T01:57:17;99143.53;;;9.63;72.16
65546;BME280;52177;55.968;37.498;2023-04-28T01:57:47;99142.72;;;9.62;72.29
65546;BME280;52177;55.968;37.498;2023-04-28T01:58:17;99148.03;;;9.62;72.38
65546;BME280;52177;55.968;37.498;2023-04-28T01:58:48;99142.72;;;9.62;72.24
65546;BME280;52177;55.968;37.498;2023-04-28T01:59:18;99148.03;;;9.62;72.38
65546;BME280;52177;55.968;37.498;2023-04-28T01:59:49;99143.34;;;9.64;72.28
65546;BME280;52177;55.968;37.498;2023-04-28T02:00:20;99146.00;;;9.64;72.26
65546;BME280;52177;55.968;37.498;2023-04-28T02:00:50;99148.66;;;9.64;72.16
65546;BME280;52177;55.968;37.498;2023-04-28T02:01:20;99146.00;;;9.64;72.26
65546;BME280;52177;55.968;37.498;2023-04-28T02:01:51;99147.66;;;9.65;72.15
65546;BME280;52177;55.968;37.498;2023-04-28T02:02:21;99145.00;;;9.65;72.32
65546;BME280;52177;55.968;37.498;2023-04-28T02:02:51;99144.19;;;9.65;72.26
65546;BME280;52177;55.968;37.498;2023-04-28T02:03:22;99144.19;;;9.65;72.46
65546;BME280;52177;55.968;37.498;2023-04-28T02:03:52;99142.34;;;9.65;72.38
65546;BME280;52177;55.968;37.498;2023-04-28T02:04:24;99147.66;;;9.65;72.45
65546;BME280;52177;55.968;37.498;2023-04-28T02:04:54;99146.63;;;9.66;72.46
65546;BME280;52177;55.968;37.498;2023-04-28T02:05:27;99138.84;;;9.65;72.50
65546;BME280;52177;55.968;37.498;2023-04-28T02:05:57;99141.69;;;9.63;72.50
65546;BME280;52177;55.968;37.498;2023-04-28T02:06:27;99141.88;;;9.62;72.49
65546;BME280;52177;55.968;37.498;2023-04-28T02:06:58;99150.88;;;9.61;72.63
65546;BME280;52177;55.968;37.498;2023-04-28T02:07:28;99143.28;;;9.58;72.74
65546;BME280;52177;55.968;37.498;2023-04-28T02:07:59;99146.75;;;9.58;72.68
65546;BME280;52177;55.968;37.498;2023-04-28T02:08:29;99148.59;;;9.58;72.82
65546;BME280;52177;55.968;37.498;2023-04-28T02:09:00;99149.59;;;9.57;72.85
65546;BME280;52177;55.968;37.498;2023-04-28T02:09:31;99152.25;;;9.57;72.91
65546;BME280;52177;55.968;37.498;2023-04-28T02:10:02;99148.75;;;9.56;72.98
65546;BME280;52177;55.968;37.498;2023-04-28T02:10:32;99156.75;;;9.56;73.00
65546;BME280;52177;55.968;37.498;2023-04-28T02:11:02;99148.75;;;9.56;73.03
65546;BME280;52177;55.968;37.498;2023-04-28T02:11:33;99155.94;;;9.56;73.05
65546;BME280;52177;55.968;37.498;2023-04-28T02:12:03;99151.44;;;9.56;73.22
65546;BME280;52177;55.968;37.498;2023-04-28T02:12:34;99146.91;;;9.57;73.27
65546;BME280;52177;55.968;37.498;2023-04-28T02:13:04;99142.41;;;9.57;73.29
65546;BME280;52177;55.968;37.498;2023-04-28T02:13:34;99144.09;;;9.58;73.19
65546;BME280;52177;55.968;37.498;2023-04-28T02:14:05;99142.41;;;9.57;73.28
65546;BME280;52177;55.968;37.498;2023-04-28T02:14:36;99141.59;;;9.57;73.37
65546;BME280;52177;55.968;37.498;2023-04-28T02:15:07;99133.63;;;9.57;73.51
65546;BME280;52177;55.968;37.498;2023-04-28T02:15:41;99136.44;;;9.55;73.51
65546;BME280;52177;55.968;37.498;2023-04-28T02:16:12;99138.13;;;9.56;73.55
65546;BME280;52177;55.968;37.498;2023-04-28T02:16:42;99137.31;;;9.56;73.66
65546;BME280;52177;55.968;37.498;2023-04-28T02:17:12;99134.44;;;9.57;73.88
65546;BME280;52177;55.968;37.498;2023-04-28T02:17:43;99135.28;;;9.58;73.90
65546;BME280;52177;55.968;37.498;2023-04-28T02:18:13;99140.41;;;9.59;73.95
65546;BME280;52177;55.968;37.498;2023-04-28T02:18:43;99138.38;;;9.61;73.83
65546;BME280;52177;55.968;37.498;2023-04-28T02:19:14;99132.06;;;9.62;74.02
65546;BME280;52177;55.968;37.498;2023-04-28T02:19:44;99131.88;;;9.64;73.77
65546;BME280;52177;55.968;37.498;2023-04-28T02:20:15;99132.69;;;9.64;73.73
65546;BME280;52177;55.968;37.498;2023-04-28T02:20:45;99137.84;;;9.66;73.95
65546;BME280;52177;55.968;37.498;2023-04-28T02:21:16;99142.78;;;9.69;73.74
65546;BME280;52177;55.968;37.498;2023-04-28T02:21:46;99138.09;;;9.71;73.71
65546;BME280;52177;55.968;37.498;2023-04-28T02:22:16;99133.44;;;9.73;73.74
65546;BME280;52177;55.968;37.498;2023-04-28T02:22:47;99135.91;;;9.75;73.79
65546;BME280;52177;55.968;37.498;2023-04-28T02:23:17;99141.88;;;9.77;73.61
65546;BME280;52177;55.968;37.498;2023-04-28T02:23:47;99137.19;;;9.79;73.62
65546;BME280;52177;55.968;37.498;2023-04-28T02:24:19;99135.34;;;9.79;73.68
65546;BME280;52177;55.968;37.498;2023-04-28T02:24:49;99135.78;;;9.83;73.63
65546;BME280;52177;55.968;37.498;2023-04-28T02:25:20;99137.25;;;9.85;73.73
65546;BME280;52177;55.968;37.498;2023-04-28T02:25:59;99137.25;;;9.85;73.74
65546;BME280;52177;55.968;37.498;2023-04-28T02:26:30;99134.41;;;9.87;73.74
65546;BME280;52177;55.968;37.498;2023-04-28T02:27:00;99136.91;;;9.88;73.69
65546;BME280;52177;55.968;37.498;2023-04-28T02:27:31;99137.72;;;9.89;73.75
65546;BME280;52177;55.968;37.498;2023-04-28T02:28:02;99135.72;;;9.91;73.81
65546;BME280;52177;55.968;37.498;2023-04-28T02:28:33;99133.03;;;9.91;73.64
65546;BME280;52177;55.968;37.498;2023-04-28T02:29:03;99138.16;;;9.92;73.63
65546;BME280;52177;55.968;37.498;2023-04-28T02:29:33;99134.50;;;9.93;73.57
65546;BME280;52177;55.968;37.498;2023-04-28T02:30:04;99144.13;;;9.94;73.82
65546;BME280;52177;55.968;37.498;2023-04-28T02:30:35;99142.31;;;9.95;73.68
65546;BME280;52177;55.968;37.498;2023-04-28T02:31:06;99141.28;;;9.96;73.63
65546;BME280;52177;55.968;37.498;2023-04-28T02:31:37;99132.28;;;9.97;73.62
65546;BME280;52177;55.968;37.498;2023-04-28T02:32:07;99143.78;;;9.98;73.69
65546;BME280;52177;55.968;37.498;2023-04-28T02:32:37;99139.28;;;9.98;73.69
65546;BME280;52177;55.968;37.498;2023-04-28T02:33:08;99144.44;;;10.00;73.76
65546;BME280;52177;55.968;37.498;2023-04-28T02:33:38;99136.44;;;10.00;73.73
65546;BME280;52177;55.968;37.498;2023-04-28T02:34:08;99138.06;;;10.01;73.75
65546;BME280;52177;55.968;37.498;2023-04-28T02:34:39;99132.56;;;10.02;73.73
65546;BME280;52177;55.968;37.498;2023-04-28T02:35:09;99137.69;;;10.04;73.75
65546;BME280;52177;55.968;37.498;2023-04-28T02:35:39;99127.84;;;10.04;73.73
65546;BME280;52177;55.968;37.498;2023-04-28T02:36:10;99139.16;;;10.06;73.83
65546;BME280;52177;55.968;37.498;2023-04-28T02:36:40;99133.00;;;10.06;73.78
65546;BME280;52177;55.968;37.498;2023-04-28T02:37:11;99139.16;;;10.06;73.66
65546;BME280;52177;55.968;37.498;2023-04-28T02:37:41;99131.16;;;10.06;73.73
65546;BME280;52177;55.968;37.498;2023-04-28T02:38:12;99133.81;;;10.06;73.92
65546;BME280;52177;55.968;37.498;2023-04-28T02:38:42;99134.69;;;10.07;73.81
65546;BME280;52177;55.968;37.498;2023-04-28T02:39:12;99133.66;;;10.08;73.83
65546;BME280;52177;55.968;37.498;2023-04-28T02:39:46;99135.50;;;10.07;73.79
65546;BME280;52177;55.968;37.498;2023-04-28T02:40:16;99142.47;;;10.08;73.91
65546;BME280;52177;55.968;37.498;2023-04-28T02:40:47;99136.13;;;10.09;73.87
65546;BME280;52177;55.968;37.498;2023-04-28T02:41:17;99132.63;;;10.09;73.97
65546;BME280;52177;55.968;37.498;2023-04-28T02:41:47;99141.25;;;10.11;74.02
65546;BME280;52177;55.968;37.498;2023-04-28T02:42:18;99137.78;;;10.10;73.87